Current | Forecast
Updated: 10:00 AM CEST on June 29, 2017
Observed at Ciudad Real, Spain
Temperature 15°C
Humidity 55%
Dew Point 6°C
Wind West at 15 km/h
Pressure 1015 hPa (Rising)
Conditions Clear
Visibility -
UV N/A
Clouds
Yesterday's Maximum 25°C
Yesterday's Minimum 15°C approx.
Yesterday's Cooling Degree Days 3 approx.
Sunrise6:53 AM CEST
Sunset9:45 PM CEST
Moon Rise12:49 PM CEST
Moon Set1:11 AM CEST
Moon PhaseMoon Phase
Waxing Crescent
Raw METARMETAR LEAO 290800Z 26008KT 230V310 CAVOK 15/06 Q1015


Monday
. High: 80° F.
Tuesday
. High: 82° F.
Wednesday
. High: 71° F.
Thursday
. High: 75° F.
Friday
. High: 84° F.
Saturday
. High: 78° F.
Sunday
. High: 86° F.
Monday
. High: 91° F.

Units: English | Metric

Find the Weather for any City, State or Zipcode, or Country:

U.S. State List | Severe Weather | Tropical Storms | Ski Conditions
United States | Canada | Central America | South America | Asia | Europe | Australia | Africa | Islands

Weather Underground

© Copyright 2017
The Weather Company, LLC